Soaring Guidance
Issued by NWS Reno, NV

Home | Current Version | Previous Version | Text Only | Print | Product List | Glossary On
Versions: 1 2 3 4 5 6 7 8 9 10 11 12 13
000
UXUS97 KREV 051451
SRGREV

SOARING FORECAST
NATIONAL WEATHER SERVICE - RENO NV
700 AM PST FRI FEB 5 2016

THIS SOARING FORECAST IS FOR THE EASTERN SIERRA AND WESTERN NEVADA
WITH SPECIFIC INDICES FOR THE GREATER RENO AREA.

THIS FORECAST IS PREPARED DAILY BY 700 AM AND IS NOT UPDATED.

FOR CURRENT FLIGHT CONDITIONS...FORECASTS...AND ADVISORIES...ACCESS
YOUR LOCAL BRIEFING OUTLET OR FLIGHT SERVICE STATION.

*******************************************************************
FORECASTED LOCAL INDICES FOR RENO:        TODAY     YESTERDAY
FORECASTED MAX TEMP AT RENO (DEG F).....     47          46
FORECASTED TRIGGER TEMPERATURE (DEG F)..     50          44
   EXCEEDED YESTERDAY BY 1055 AM PST
FORECASTED MAXIMUM ALTITUDE (FT MSL)....   7500        7400
FORECASTED SOARING INDEX (FPM)..........    195         222
FORECASTED K-INDEX.........VALID 18Z....      1           6
FORECASTED K-INDEX.........VALID 00Z....      0          10
FORECASTED LIFTED INDEX....VALID 18Z....     14          10
FORECASTED LIFTED INDEX....VALID 00Z....     12           9

AFTERNOON WINDS ALOFT FORECAST
MSL (FT) WIND/TEMP
9000  2816/+00
10000 2818/-01
12000 3023/-04
14000 2924/-08
16000 2925/-12
18000 2927/-17
24000 2831/-28
30000 2833/-46
34000 2730/-56
39000 2736/-66

SLIDE MOUNTAIN DATA:
     DATE       TIME     TEMP  DEWPT   RH         WIND (MPH)
                        (F)   (F)           | DIR  SPEED GUST
2016-02-05    05:50      24     4     45    | 153   13   15
2016-02-05    05:30      24     4     45    | 147   14   16
2016-02-05    05:20      24     4     45    | 144   14   17
2016-02-05    05:00      23     4     47    | 148   14   16

RENO TAF FORECAST:
KRNO 051120Z 0512/0612 VRB04KT P6SM SCT200

CARSON CITY TAF FORECAST:
KCXP 051120Z 0512/0612 VRB03KT P6SM SCT200
     FM052000 09008KT P6SM SCT120 BKN200
     FM060300 VRB03KT P6SM SCT200

OUTLOOK FOR THE RENO-CARSON CITY-MINDEN AREA:
.SATURDAY...MOSTLY CLOUDY IN THE MORNING THEN CLEARING. HIGHS
48 TO 53. LIGHT WINDS.

SUNRISE AND SUNSET
FEBRUARY  5 2016......SUNRISE   703 AM PST   SUNSET   524 PM PST
FEBRUARY  6 2016......SUNRISE   702 AM PST   SUNSET   525 PM PST


USA.gov is the U.S. government's official web portal to all federal, state and local government web resources and services.